createdAt,value
2022-11-04T00:02:17.736Z,84.28
2022-11-04T00:12:27.610Z,84.68
2022-11-04T00:22:50.500Z,85.05
2022-11-04T00:33:12.900Z,85.01
2022-11-04T00:43:16.856Z,85.30
2022-11-04T00:53:20.424Z,85.46
2022-11-04T01:03:24.409Z,85.68
2022-11-04T01:13:28.362Z,85.77
2022-11-04T01:23:34.390Z,85.94
2022-11-04T01:33:39.288Z,85.96
2022-11-04T01:43:48.879Z,86.00
2022-11-04T01:53:55.634Z,86.18
2022-11-04T02:04:20.462Z,86.18
2022-11-04T02:14:24.331Z,85.82
2022-11-04T02:24:43.550Z,85.85
2022-11-04T02:35:11.588Z,86.04
2022-11-04T02:45:27.346Z,85.23
2022-11-04T02:55:38.359Z,85.33
2022-11-04T03:05:48.256Z,85.70
2022-11-04T03:15:58.832Z,86.97
2022-11-04T03:26:13.385Z,86.93
2022-11-04T03:36:18.281Z,87.04
2022-11-04T03:46:23.081Z,86.66
2022-11-04T03:56:45.167Z,85.69
2022-11-04T04:06:53.794Z,85.78
2022-11-04T04:17:00.332Z,86.22
2022-11-04T04:27:23.270Z,85.77
2022-11-04T04:37:28.165Z,85.61
2022-11-04T04:47:45.175Z,84.90
2022-11-04T04:57:49.418Z,85.17
2022-11-04T05:07:54.218Z,86.47
2022-11-04T05:18:01.346Z,86.79
2022-11-04T05:28:06.099Z,86.44
2022-11-04T05:38:10.117Z,85.98
2022-11-04T05:48:14.080Z,84.92
2022-11-04T05:58:18.128Z,84.62
2022-11-04T06:08:21.841Z,84.73
2022-11-04T06:18:25.892Z,84.74
2022-11-04T06:28:29.757Z,85.39
2022-11-04T06:38:36.098Z,86.16
2022-11-04T06:48:40.269Z,86.42
2022-11-04T06:58:44.958Z,85.98
2022-11-04T07:08:52.320Z,85.92
2022-11-04T07:18:55.975Z,86.66
2022-11-04T07:29:01.395Z,87.69
2022-11-04T07:39:07.066Z,88.67
2022-11-04T07:49:10.655Z,89.27
2022-11-04T07:59:14.830Z,88.94
2022-11-04T08:09:18.740Z,88.66
2022-11-04T08:19:22.480Z,87.71
2022-11-04T08:29:26.759Z,87.19
2022-11-04T08:39:30.840Z,87.49
2022-11-04T08:49:39.755Z,87.37
2022-11-04T08:59:43.785Z,87.04
2022-11-04T09:09:47.452Z,86.65
2022-11-04T09:19:51.627Z,86.28
2022-11-04T09:29:55.599Z,85.54
2022-11-04T09:39:59.558Z,85.13
2022-11-04T09:50:04.148Z,83.28
2022-11-04T10:00:15.305Z,81.17
2022-11-04T10:10:25.602Z,80.07
2022-11-04T10:20:43.769Z,78.71
2022-11-04T10:30:51.052Z,76.57
2022-11-04T10:40:56.254Z,74.94
2022-11-04T10:51:01.146Z,73.95
2022-11-04T11:01:30.084Z,72.92
2022-11-04T11:11:47.789Z,72.31
2022-11-04T11:21:54.787Z,71.56
2022-11-04T11:32:01.346Z,70.95
2022-11-04T11:42:06.850Z,70.11
2022-11-04T11:52:22.799Z,68.80
2022-11-04T12:02:36.346Z,67.02
2022-11-04T12:12:40.609Z,65.51
2022-11-04T12:23:14.387Z,64.45
2022-11-04T12:33:38.060Z,60.87
2022-11-04T12:43:56.647Z,60.35
2022-11-04T12:54:04.501Z,60.09
2022-11-04T13:04:17.683Z,59.89
2022-11-04T13:14:29.900Z,59.54
2022-11-04T13:24:39.239Z,60.19
2022-11-04T13:35:08.900Z,60.47
2022-11-04T13:45:16.357Z,61.59
2022-11-04T13:55:22.037Z,63.08
2022-11-04T14:05:29.289Z,64.25
2022-11-04T14:16:00.990Z,65.18
2022-11-04T14:26:13.802Z,66.33
2022-11-04T14:36:17.658Z,66.82
2022-11-04T14:46:25.652Z,67.86
2022-11-04T14:56:29.932Z,68.53
2022-11-04T15:06:53.242Z,70.15
2022-11-04T15:16:59.607Z,70.81
2022-11-04T15:27:06.476Z,71.23
2022-11-04T15:37:16.291Z,71.99
2022-11-04T15:47:30.839Z,72.96
2022-11-04T15:57:41.313Z,73.55
2022-11-04T16:07:51.851Z,74.07
2022-11-04T16:17:55.717Z,74.69
2022-11-04T16:28:00.738Z,75.13
2022-11-04T16:38:05.427Z,75.66
2022-11-04T16:48:12.540Z,76.40
2022-11-04T16:58:18.758Z,76.76
2022-11-04T17:08:24.026Z,76.93
2022-11-04T17:18:33.215Z,77.21
2022-11-04T17:28:39.763Z,78.11
2022-11-04T17:38:44.576Z,78.87
2022-11-04T17:48:49.273Z,78.98
2022-11-04T17:58:54.367Z,79.06
2022-11-04T18:09:00.055Z,79.08
2022-11-04T18:19:04.305Z,79.08
2022-11-04T18:29:10.504Z,79.32
2022-11-04T18:39:19.981Z,79.57
2022-11-04T18:49:27.840Z,79.78
2022-11-04T18:59:33.148Z,79.89
2022-11-04T19:09:46.798Z,80.30
2022-11-04T19:19:52.974Z,80.64
2022-11-04T19:29:58.465Z,80.95
2022-11-04T19:40:05.846Z,81.38
2022-11-04T19:50:12.139Z,82.12
2022-11-04T20:00:17.449Z,82.85
2022-11-04T20:10:24.205Z,83.52
2022-11-04T20:20:29.830Z,84.00
2022-11-04T20:30:39.599Z,83.93
2022-11-04T20:40:45.574Z,83.38
2022-11-04T20:50:50.825Z,83.10
2022-11-04T21:00:55.388Z,83.15
2022-11-04T21:11:00.514Z,83.30
2022-11-04T21:21:06.888Z,83.49
2022-11-04T21:31:13.333Z,83.49
2022-11-04T21:41:26.473Z,83.35
2022-11-04T21:51:32.695Z,84.25
2022-11-04T22:01:36.565Z,84.97
2022-11-04T22:11:41.342Z,84.80
2022-11-04T22:21:46.424Z,84.85
2022-11-04T22:31:50.229Z,84.83
2022-11-04T22:41:54.282Z,84.55
2022-11-04T22:51:58.039Z,85.09
2022-11-04T23:02:02.035Z,85.01
2022-11-04T23:12:24.816Z,84.74
2022-11-04T23:22:47.209Z,84.42
2022-11-04T23:32:52.964Z,84.53
2022-11-04T23:42:56.889Z,84.83
2022-11-04T23:53:20.824Z,84.54
